sensor_id;sensor_type;location;lat;lon;timestamp;P1;durP1;ratioP1;P2;durP2;ratioP2
10045;SDS011;5063;50.878;4.742;2022-08-21T00:00:56;4.33;;;2.90;;
10045;SDS011;5063;50.878;4.742;2022-08-21T00:03:35;7.47;;;3.07;;
10045;SDS011;5063;50.878;4.742;2022-08-21T00:06:01;4.83;;;2.90;;
10045;SDS011;5063;50.878;4.742;2022-08-21T00:08:27;4.77;;;2.93;;
10045;SDS011;5063;50.878;4.742;2022-08-21T00:10:53;6.80;;;2.97;;
10045;SDS011;5063;50.878;4.742;2022-08-21T00:13:19;5.90;;;2.77;;
10045;SDS011;5063;50.878;4.742;2022-08-21T00:15:46;5.83;;;2.80;;
10045;SDS011;5063;50.878;4.742;2022-08-21T00:18:12;6.07;;;3.20;;
10045;SDS011;5063;50.878;4.742;2022-08-21T00:20:39;6.23;;;3.13;;
10045;SDS011;5063;50.878;4.742;2022-08-21T00:23:06;4.63;;;2.40;;
10045;SDS011;5063;50.878;4.742;2022-08-21T00:25:31;9.67;;;2.93;;
10045;SDS011;5063;50.878;4.742;2022-08-21T00:27:58;7.00;;;2.90;;
10045;SDS011;5063;50.878;4.742;2022-08-21T00:30:24;7.90;;;3.10;;
10045;SDS011;5063;50.878;4.742;2022-08-21T00:32:51;6.73;;;3.30;;
10045;SDS011;5063;50.878;4.742;2022-08-21T00:35:21;6.23;;;2.70;;
10045;SDS011;5063;50.878;4.742;2022-08-21T00:37:49;4.77;;;3.20;;
10045;SDS011;5063;50.878;4.742;2022-08-21T00:40:16;8.13;;;3.20;;
10045;SDS011;5063;50.878;4.742;2022-08-21T00:42:44;6.07;;;2.73;;
10045;SDS011;5063;50.878;4.742;2022-08-21T00:45:11;8.07;;;2.70;;
10045;SDS011;5063;50.878;4.742;2022-08-21T00:47:36;4.70;;;3.10;;
10045;SDS011;5063;50.878;4.742;2022-08-21T00:50:03;5.83;;;3.07;;
10045;SDS011;5063;50.878;4.742;2022-08-21T00:52:31;6.07;;;3.20;;
10045;SDS011;5063;50.878;4.742;2022-08-21T00:54:59;3.97;;;2.60;;
10045;SDS011;5063;50.878;4.742;2022-08-21T00:57:30;3.47;;;2.97;;
10045;SDS011;5063;50.878;4.742;2022-08-21T01:00:01;6.20;;;3.27;;
10045;SDS011;5063;50.878;4.742;2022-08-21T01:02:30;4.57;;;2.60;;
10045;SDS011;5063;50.878;4.742;2022-08-21T01:04:55;5.90;;;3.10;;
10045;SDS011;5063;50.878;4.742;2022-08-21T01:07:21;5.63;;;2.97;;
10045;SDS011;5063;50.878;4.742;2022-08-21T01:09:47;4.90;;;2.63;;
10045;SDS011;5063;50.878;4.742;2022-08-21T01:12:13;4.80;;;2.83;;
10045;SDS011;5063;50.878;4.742;2022-08-21T01:14:40;4.37;;;2.80;;
10045;SDS011;5063;50.878;4.742;2022-08-21T01:17:11;4.80;;;2.60;;
10045;SDS011;5063;50.878;4.742;2022-08-21T01:19:39;8.63;;;2.73;;
10045;SDS011;5063;50.878;4.742;2022-08-21T01:22:05;6.43;;;2.73;;
10045;SDS011;5063;50.878;4.742;2022-08-21T01:24:31;4.93;;;2.87;;
10045;SDS011;5063;50.878;4.742;2022-08-21T01:26:57;3.63;;;2.90;;
10045;SDS011;5063;50.878;4.742;2022-08-21T01:32:04;3.50;;;2.70;;
10045;SDS011;5063;50.878;4.742;2022-08-21T01:34:33;4.67;;;2.57;;
10045;SDS011;5063;50.878;4.742;2022-08-21T01:37:00;4.90;;;2.70;;
10045;SDS011;5063;50.878;4.742;2022-08-21T01:39:26;4.67;;;2.40;;
10045;SDS011;5063;50.878;4.742;2022-08-21T01:41:52;7.97;;;3.00;;
10045;SDS011;5063;50.878;4.742;2022-08-21T01:44:20;5.70;;;2.70;;
10045;SDS011;5063;50.878;4.742;2022-08-21T01:46:46;4.70;;;2.77;;
10045;SDS011;5063;50.878;4.742;2022-08-21T01:49:13;3.40;;;2.50;;
10045;SDS011;5063;50.878;4.742;2022-08-21T01:51:40;3.77;;;2.80;;
10045;SDS011;5063;50.878;4.742;2022-08-21T01:54:06;5.40;;;2.90;;
10045;SDS011;5063;50.878;4.742;2022-08-21T01:56:37;8.73;;;3.27;;
10045;SDS011;5063;50.878;4.742;2022-08-21T01:59:08;7.57;;;2.60;;
10045;SDS011;5063;50.878;4.742;2022-08-21T02:01:34;5.83;;;2.67;;
10045;SDS011;5063;50.878;4.742;2022-08-21T02:04:00;4.73;;;2.30;;
10045;SDS011;5063;50.878;4.742;2022-08-21T02:06:26;5.03;;;2.80;;
10045;SDS011;5063;50.878;4.742;2022-08-21T02:08:52;7.93;;;3.30;;
10045;SDS011;5063;50.878;4.742;2022-08-21T02:11:19;6.13;;;3.03;;
10045;SDS011;5063;50.878;4.742;2022-08-21T02:13:45;5.07;;;2.90;;
10045;SDS011;5063;50.878;4.742;2022-08-21T02:16:11;6.73;;;2.60;;
10045;SDS011;5063;50.878;4.742;2022-08-21T02:18:37;5.13;;;2.57;;
10045;SDS011;5063;50.878;4.742;2022-08-21T02:21:03;4.47;;;2.60;;
10045;SDS011;5063;50.878;4.742;2022-08-21T02:23:30;7.67;;;3.07;;
10045;SDS011;5063;50.878;4.742;2022-08-21T02:26:01;6.00;;;2.67;;
10045;SDS011;5063;50.878;4.742;2022-08-21T02:28:28;5.40;;;3.13;;
10045;SDS011;5063;50.878;4.742;2022-08-21T02:30:54;8.47;;;3.00;;
10045;SDS011;5063;50.878;4.742;2022-08-21T02:33:21;6.70;;;3.07;;
10045;SDS011;5063;50.878;4.742;2022-08-21T02:35:47;8.50;;;3.23;;
10045;SDS011;5063;50.878;4.742;2022-08-21T02:38:15;4.53;;;2.90;;
10045;SDS011;5063;50.878;4.742;2022-08-21T02:40:44;5.37;;;2.87;;
10045;SDS011;5063;50.878;4.742;2022-08-21T02:43:11;6.20;;;2.50;;
10045;SDS011;5063;50.878;4.742;2022-08-21T02:45:38;6.70;;;3.07;;
10045;SDS011;5063;50.878;4.742;2022-08-21T02:48:05;4.53;;;2.80;;
10045;SDS011;5063;50.878;4.742;2022-08-21T02:50:34;7.63;;;3.00;;
10045;SDS011;5063;50.878;4.742;2022-08-21T02:53:03;4.23;;;2.47;;
10045;SDS011;5063;50.878;4.742;2022-08-21T02:55:31;5.23;;;2.87;;
10045;SDS011;5063;50.878;4.742;2022-08-21T02:57:58;5.40;;;2.57;;
10045;SDS011;5063;50.878;4.742;2022-08-21T03:00:25;7.37;;;3.00;;
10045;SDS011;5063;50.878;4.742;2022-08-21T03:02:53;4.70;;;2.80;;
10045;SDS011;5063;50.878;4.742;2022-08-21T03:05:20;11.43;;;3.20;;
10045;SDS011;5063;50.878;4.742;2022-08-21T03:07:46;7.77;;;2.53;;
10045;SDS011;5063;50.878;4.742;2022-08-21T03:10:12;5.67;;;2.83;;
10045;SDS011;5063;50.878;4.742;2022-08-21T03:12:38;6.90;;;2.80;;
10045;SDS011;5063;50.878;4.742;2022-08-21T03:15:06;6.80;;;3.43;;
10045;SDS011;5063;50.878;4.742;2022-08-21T03:17:34;7.77;;;2.83;;
10045;SDS011;5063;50.878;4.742;2022-08-21T03:20:00;5.17;;;2.63;;
10045;SDS011;5063;50.878;4.742;2022-08-21T03:22:27;11.17;;;3.00;;
10045;SDS011;5063;50.878;4.742;2022-08-21T03:24:53;7.57;;;3.20;;
10045;SDS011;5063;50.878;4.742;2022-08-21T03:27:19;6.60;;;2.70;;
10045;SDS011;5063;50.878;4.742;2022-08-21T03:29:45;9.23;;;2.90;;
10045;SDS011;5063;50.878;4.742;2022-08-21T03:32:10;5.50;;;2.50;;
10045;SDS011;5063;50.878;4.742;2022-08-21T03:34:36;6.90;;;2.90;;
10045;SDS011;5063;50.878;4.742;2022-08-21T03:37:03;4.37;;;2.40;;
10045;SDS011;5063;50.878;4.742;2022-08-21T03:39:30;6.53;;;2.60;;
10045;SDS011;5063;50.878;4.742;2022-08-21T03:41:56;5.23;;;2.67;;
10045;SDS011;5063;50.878;4.742;2022-08-21T03:44:21;6.50;;;2.83;;
10045;SDS011;5063;50.878;4.742;2022-08-21T03:46:48;5.17;;;2.23;;
10045;SDS011;5063;50.878;4.742;2022-08-21T03:49:14;6.17;;;2.80;;
10045;SDS011;5063;50.878;4.742;2022-08-21T03:51:40;7.70;;;2.53;;
10045;SDS011;5063;50.878;4.742;2022-08-21T03:54:05;5.67;;;2.20;;
10045;SDS011;5063;50.878;4.742;2022-08-21T03:56:31;6.23;;;2.57;;
10045;SDS011;5063;50.878;4.742;2022-08-21T03:58:57;7.53;;;2.57;;
10045;SDS011;5063;50.878;4.742;2022-08-21T04:01:23;4.70;;;2.40;;
10045;SDS011;5063;50.878;4.742;2022-08-21T04:03:48;6.57;;;2.30;;
10045;SDS011;5063;50.878;4.742;2022-08-21T04:06:14;7.63;;;2.63;;
10045;SDS011;5063;50.878;4.742;2022-08-21T04:08:40;6.30;;;2.50;;
10045;SDS011;5063;50.878;4.742;2022-08-21T04:11:07;3.50;;;2.60;;
10045;SDS011;5063;50.878;4.742;2022-08-21T04:13:35;5.67;;;2.53;;
10045;SDS011;5063;50.878;4.742;2022-08-21T04:16:01;6.60;;;2.77;;
10045;SDS011;5063;50.878;4.742;2022-08-21T04:18:27;5.43;;;2.77;;
10045;SDS011;5063;50.878;4.742;2022-08-21T04:20:53;4.83;;;2.00;;
10045;SDS011;5063;50.878;4.742;2022-08-21T04:23:21;5.60;;;2.50;;
10045;SDS011;5063;50.878;4.742;2022-08-21T04:25:47;5.33;;;2.17;;
10045;SDS011;5063;50.878;4.742;2022-08-21T04:28:13;3.13;;;2.03;;
10045;SDS011;5063;50.878;4.742;2022-08-21T04:30:39;8.27;;;2.70;;
10045;SDS011;5063;50.878;4.742;2022-08-21T04:33:05;5.23;;;2.57;;
10045;SDS011;5063;50.878;4.742;2022-08-21T04:35:30;3.60;;;2.73;;
10045;SDS011;5063;50.878;4.742;2022-08-21T04:37:57;6.07;;;2.57;;
10045;SDS011;5063;50.878;4.742;2022-08-21T04:40:23;5.50;;;2.10;;
10045;SDS011;5063;50.878;4.742;2022-08-21T04:42:52;3.30;;;2.53;;
10045;SDS011;5063;50.878;4.742;2022-08-21T04:47:49;6.63;;;2.53;;
10045;SDS011;5063;50.878;4.742;2022-08-21T04:50:16;6.27;;;2.50;;
10045;SDS011;5063;50.878;4.742;2022-08-21T04:52:41;7.23;;;2.33;;
10045;SDS011;5063;50.878;4.742;2022-08-21T04:55:08;4.83;;;2.63;;
10045;SDS011;5063;50.878;4.742;2022-08-21T04:57:34;4.13;;;2.10;;
10045;SDS011;5063;50.878;4.742;2022-08-21T05:00:00;7.27;;;2.57;;
10045;SDS011;5063;50.878;4.742;2022-08-21T05:02:28;5.00;;;2.20;;
10045;SDS011;5063;50.878;4.742;2022-08-21T05:04:54;5.57;;;3.00;;
10045;SDS011;5063;50.878;4.742;2022-08-21T05:07:22;6.83;;;2.60;;
10045;SDS011;5063;50.878;4.742;2022-08-21T05:09:53;6.93;;;2.60;;
10045;SDS011;5063;50.878;4.742;2022-08-21T05:12:19;5.53;;;2.80;;
10045;SDS011;5063;50.878;4.742;2022-08-21T05:14:45;4.10;;;2.63;;
10045;SDS011;5063;50.878;4.742;2022-08-21T05:17:12;7.17;;;2.43;;
10045;SDS011;5063;50.878;4.742;2022-08-21T05:19:38;5.00;;;2.47;;
10045;SDS011;5063;50.878;4.742;2022-08-21T05:22:04;5.47;;;2.30;;
10045;SDS011;5063;50.878;4.742;2022-08-21T05:24:29;3.90;;;2.53;;
10045;SDS011;5063;50.878;4.742;2022-08-21T05:26:55;4.93;;;2.40;;
10045;SDS011;5063;50.878;4.742;2022-08-21T05:29:21;4.30;;;2.47;;
10045;SDS011;5063;50.878;4.742;2022-08-21T05:31:47;9.37;;;2.60;;
10045;SDS011;5063;50.878;4.742;2022-08-21T05:34:14;6.83;;;2.60;;
10045;SDS011;5063;50.878;4.742;2022-08-21T05:36:43;7.00;;;2.40;;
10045;SDS011;5063;50.878;4.742;2022-08-21T05:39:09;7.10;;;2.73;;
10045;SDS011;5063;50.878;4.742;2022-08-21T05:41:35;5.00;;;2.77;;
10045;SDS011;5063;50.878;4.742;2022-08-21T05:44:00;5.90;;;2.83;;
10045;SDS011;5063;50.878;4.742;2022-08-21T05:46:26;5.20;;;2.07;;
10045;SDS011;5063;50.878;4.742;2022-08-21T05:48:52;6.03;;;2.90;;
10045;SDS011;5063;50.878;4.742;2022-08-21T05:51:18;5.47;;;2.60;;
10045;SDS011;5063;50.878;4.742;2022-08-21T05:53:43;8.13;;;2.57;;
10045;SDS011;5063;50.878;4.742;2022-08-21T05:56:10;7.43;;;2.73;;
10045;SDS011;5063;50.878;4.742;2022-08-21T05:58:36;6.40;;;2.67;;
10045;SDS011;5063;50.878;4.742;2022-08-21T06:01:03;5.97;;;2.60;;
10045;SDS011;5063;50.878;4.742;2022-08-21T06:03:31;7.03;;;2.40;;
10045;SDS011;5063;50.878;4.742;2022-08-21T06:05:59;4.83;;;2.40;;
10045;SDS011;5063;50.878;4.742;2022-08-21T06:08:25;5.07;;;2.53;;
10045;SDS011;5063;50.878;4.742;2022-08-21T06:10:52;7.30;;;2.80;;
10045;SDS011;5063;50.878;4.742;2022-08-21T06:13:19;9.30;;;2.93;;
10045;SDS011;5063;50.878;4.742;2022-08-21T06:15:46;5.50;;;2.47;;
10045;SDS011;5063;50.878;4.742;2022-08-21T06:18:12;6.07;;;2.40;;
10045;SDS011;5063;50.878;4.742;2022-08-21T06:20:39;8.00;;;2.63;;
10045;SDS011;5063;50.878;4.742;2022-08-21T06:23:05;3.97;;;2.80;;
10045;SDS011;5063;50.878;4.742;2022-08-21T06:25:31;4.77;;;2.83;;
10045;SDS011;5063;50.878;4.742;2022-08-21T06:28:07;3.80;;;2.30;;
10045;SDS011;5063;50.878;4.742;2022-08-21T06:30:34;5.00;;;2.60;;
10045;SDS011;5063;50.878;4.742;2022-08-21T06:33:02;3.60;;;2.00;;
10045;SDS011;5063;50.878;4.742;2022-08-21T06:35:28;2.87;;;1.87;;
10045;SDS011;5063;50.878;4.742;2022-08-21T06:37:55;4.97;;;2.13;;
10045;SDS011;5063;50.878;4.742;2022-08-21T06:40:22;6.87;;;2.13;;
10045;SDS011;5063;50.878;4.742;2022-08-21T06:42:47;4.50;;;1.98;;
10045;SDS011;5063;50.878;4.742;2022-08-21T06:45:14;3.50;;;1.77;;
10045;SDS011;5063;50.878;4.742;2022-08-21T06:47:40;7.10;;;2.03;;
10045;SDS011;5063;50.878;4.742;2022-08-21T06:50:06;4.85;;;1.88;;
10045;SDS011;5063;50.878;4.742;2022-08-21T06:52:33;4.20;;;1.95;;
10045;SDS011;5063;50.878;4.742;2022-08-21T06:55:00;5.25;;;2.03;;
10045;SDS011;5063;50.878;4.742;2022-08-21T06:57:25;3.47;;;1.50;;
10045;SDS011;5063;50.878;4.742;2022-08-21T06:59:51;6.00;;;1.98;;
10045;SDS011;5063;50.878;4.742;2022-08-21T07:02:17;6.05;;;2.10;;
10045;SDS011;5063;50.878;4.742;2022-08-21T07:04:43;4.45;;;1.58;;
10045;SDS011;5063;50.878;4.742;2022-08-21T07:07:08;4.07;;;2.05;;
10045;SDS011;5063;50.878;4.742;2022-08-21T07:09:34;5.10;;;2.13;;
10045;SDS011;5063;50.878;4.742;2022-08-21T07:12:00;4.20;;;1.63;;
10045;SDS011;5063;50.878;4.742;2022-08-21T07:14:27;5.80;;;1.85;;
10045;SDS011;5063;50.878;4.742;2022-08-21T07:16:52;4.07;;;1.70;;
10045;SDS011;5063;50.878;4.742;2022-08-21T07:19:18;5.38;;;1.70;;
10045;SDS011;5063;50.878;4.742;2022-08-21T07:21:44;3.15;;;1.80;;
10045;SDS011;5063;50.878;4.742;2022-08-21T07:24:10;5.25;;;2.00;;
10045;SDS011;5063;50.878;4.742;2022-08-21T07:26:36;7.60;;;1.70;;
10045;SDS011;5063;50.878;4.742;2022-08-21T07:29:02;6.93;;;2.10;;
10045;SDS011;5063;50.878;4.742;2022-08-21T07:31:28;3.03;;;2.00;;
10045;SDS011;5063;50.878;4.742;2022-08-21T07:33:54;4.25;;;1.80;;
10045;SDS011;5063;50.878;4.742;2022-08-21T07:36:20;4.72;;;1.83;;
10045;SDS011;5063;50.878;4.742;2022-08-21T07:38:46;4.72;;;1.80;;
10045;SDS011;5063;50.878;4.742;2022-08-21T07:41:19;4.90;;;1.73;;
10045;SDS011;5063;50.878;4.742;2022-08-21T07:43:50;5.10;;;2.10;;
10045;SDS011;5063;50.878;4.742;2022-08-21T07:46:16;2.95;;;1.70;;
10045;SDS011;5063;50.878;4.742;2022-08-21T07:48:42;5.68;;;2.33;;
10045;SDS011;5063;50.878;4.742;2022-08-21T07:51:09;4.78;;;1.63;;
10045;SDS011;5063;50.878;4.742;2022-08-21T07:53:36;4.13;;;1.80;;
10045;SDS011;5063;50.878;4.742;2022-08-21T07:56:03;3.17;;;1.65;;
10045;SDS011;5063;50.878;4.742;2022-08-21T07:58:30;3.35;;;1.90;;
10045;SDS011;5063;50.878;4.742;2022-08-21T08:00:56;7.70;;;2.08;;
10045;SDS011;5063;50.878;4.742;2022-08-21T08:03:22;5.60;;;1.95;;
10045;SDS011;5063;50.878;4.742;2022-08-21T08:05:47;5.75;;;2.00;;
10045;SDS011;5063;50.878;4.742;2022-08-21T08:08:13;4.03;;;1.90;;
10045;SDS011;5063;50.878;4.742;2022-08-21T08:10:39;4.45;;;1.90;;
10045;SDS011;5063;50.878;4.742;2022-08-21T08:13:05;3.20;;;1.52;;
10045;SDS011;5063;50.878;4.742;2022-08-21T08:15:31;5.82;;;1.70;;
10045;SDS011;5063;50.878;4.742;2022-08-21T08:17:57;5.38;;;1.77;;
10045;SDS011;5063;50.878;4.742;2022-08-21T08:20:23;4.78;;;1.92;;
10045;SDS011;5063;50.878;4.742;2022-08-21T08:22:52;4.03;;;1.77;;
10045;SDS011;5063;50.878;4.742;2022-08-21T08:25:19;4.75;;;1.73;;
10045;SDS011;5063;50.878;4.742;2022-08-21T08:27:48;6.20;;;1.65;;
10045;SDS011;5063;50.878;4.742;2022-08-21T08:30:14;5.00;;;1.52;;
10045;SDS011;5063;50.878;4.742;2022-08-21T08:32:42;4.43;;;1.77;;
10045;SDS011;5063;50.878;4.742;2022-08-21T08:35:08;3.55;;;1.92;;
10045;SDS011;5063;50.878;4.742;2022-08-21T08:37:34;3.33;;;2.03;;
10045;SDS011;5063;50.878;4.742;2022-08-21T08:40:03;5.68;;;1.60;;
10045;SDS011;5063;50.878;4.742;2022-08-21T08:42:30;7.40;;;2.00;;
10045;SDS011;5063;50.878;4.742;2022-08-21T08:45:19;5.53;;;2.03;;
10045;SDS011;5063;50.878;4.742;2022-08-21T08:47:48;5.20;;;1.50;;
10045;SDS011;5063;50.878;4.742;2022-08-21T08:50:28;7.13;;;1.98;;
10045;SDS011;5063;50.878;4.742;2022-08-21T08:52:59;6.45;;;1.73;;
10045;SDS011;5063;50.878;4.742;2022-08-21T08:55:39;3.55;;;1.85;;
10045;SDS011;5063;50.878;4.742;2022-08-21T08:58:07;3.10;;;1.55;;
10045;SDS011;5063;50.878;4.742;2022-08-21T09:00:39;4.30;;;1.73;;
10045;SDS011;5063;50.878;4.742;2022-08-21T09:03:05;4.03;;;1.98;;
10045;SDS011;5063;50.878;4.742;2022-08-21T09:11:35;5.18;;;1.73;;
10045;SDS011;5063;50.878;4.742;2022-08-21T09:16:47;6.35;;;2.25;;
10045;SDS011;5063;50.878;4.742;2022-08-21T09:19:44;6.22;;;1.90;;
10045;SDS011;5063;50.878;4.742;2022-08-21T09:25:04;6.00;;;2.28;;
10045;SDS011;5063;50.878;4.742;2022-08-21T09:27:36;4.93;;;1.52;;
10045;SDS011;5063;50.878;4.742;2022-08-21T09:30:03;5.90;;;1.90;;
10045;SDS011;5063;50.878;4.742;2022-08-21T09:32:31;5.78;;;1.65;;
10045;SDS011;5063;50.878;4.742;2022-08-21T09:37:53;4.63;;;2.03;;
10045;SDS011;5063;50.878;4.742;2022-08-21T09:40:35;5.07;;;1.90;;
10045;SDS011;5063;50.878;4.742;2022-08-21T09:43:22;5.03;;;2.00;;
10045;SDS011;5063;50.878;4.742;2022-08-21T09:46:00;4.45;;;1.75;;
10045;SDS011;5063;50.878;4.742;2022-08-21T09:48:48;3.95;;;1.63;;
10045;SDS011;5063;50.878;4.742;2022-08-21T09:51:16;5.63;;;2.10;;
10045;SDS011;5063;50.878;4.742;2022-08-21T09:56:40;4.80;;;2.00;;
10045;SDS011;5063;50.878;4.742;2022-08-21T09:59:36;6.28;;;2.03;;
10045;SDS011;5063;50.878;4.742;2022-08-21T10:02:48;3.47;;;1.83;;
10045;SDS011;5063;50.878;4.742;2022-08-21T10:04:55;9.40;;;2.03;;
10045;SDS011;5063;50.878;4.742;2022-08-21T10:07:23;5.47;;;1.98;;
10045;SDS011;5063;50.878;4.742;2022-08-21T10:10:08;6.32;;;1.98;;
10045;SDS011;5063;50.878;4.742;2022-08-21T10:12:49;4.47;;;2.22;;
10045;SDS011;5063;50.878;4.742;2022-08-21T10:15:33;6.05;;;2.05;;
10045;SDS011;5063;50.878;4.742;2022-08-21T10:21:14;5.47;;;2.00;;
10045;SDS011;5063;50.878;4.742;2022-08-21T10:23:51;4.55;;;1.88;;
10045;SDS011;5063;50.878;4.742;2022-08-21T10:28:59;5.40;;;2.05;;
10045;SDS011;5063;50.878;4.742;2022-08-21T10:31:42;5.55;;;1.80;;
10045;SDS011;5063;50.878;4.742;2022-08-21T10:34:28;5.18;;;1.92;;
10045;SDS011;5063;50.878;4.742;2022-08-21T10:39:55;6.18;;;2.20;;
10045;SDS011;5063;50.878;4.742;2022-08-21T10:42:38;5.38;;;1.95;;
10045;SDS011;5063;50.878;4.742;2022-08-21T10:45:15;3.42;;;1.55;;
10045;SDS011;5063;50.878;4.742;2022-08-21T10:47:46;7.65;;;2.10;;
10045;SDS011;5063;50.878;4.742;2022-08-21T10:50:19;6.53;;;2.10;;
10045;SDS011;5063;50.878;4.742;2022-08-21T10:53:12;5.70;;;1.95;;
10045;SDS011;5063;50.878;4.742;2022-08-21T10:56:01;5.60;;;2.15;;
10045;SDS011;5063;50.878;4.742;2022-08-21T10:58:36;7.13;;;2.28;;
10045;SDS011;5063;50.878;4.742;2022-08-21T11:01:12;7.03;;;2.30;;
10045;SDS011;5063;50.878;4.742;2022-08-21T11:03:44;5.43;;;2.15;;
10045;SDS011;5063;50.878;4.742;2022-08-21T11:06:22;6.05;;;2.30;;
10045;SDS011;5063;50.878;4.742;2022-08-21T11:08:53;8.45;;;2.45;;
10045;SDS011;5063;50.878;4.742;2022-08-21T11:14:02;6.30;;;2.30;;
10045;SDS011;5063;50.878;4.742;2022-08-21T11:16:40;7.20;;;1.88;;
10045;SDS011;5063;50.878;4.742;2022-08-21T11:19:20;10.48;;;2.25;;
10045;SDS011;5063;50.878;4.742;2022-08-21T11:27:09;7.80;;;1.75;;
10045;SDS011;5063;50.878;4.742;2022-08-21T11:29:40;4.75;;;2.30;;
10045;SDS011;5063;50.878;4.742;2022-08-21T11:40:36;8.20;;;2.45;;
10045;SDS011;5063;50.878;4.742;2022-08-21T11:43:32;6.03;;;2.25;;
10045;SDS011;5063;50.878;4.742;2022-08-21T11:46:11;11.57;;;2.50;;
10045;SDS011;5063;50.878;4.742;2022-08-21T11:51:09;10.55;;;2.67;;
10045;SDS011;5063;50.878;4.742;2022-08-21T11:56:40;6.05;;;2.03;;
10045;SDS011;5063;50.878;4.742;2022-08-21T11:59:14;4.70;;;2.25;;
10045;SDS011;5063;50.878;4.742;2022-08-21T12:01:46;5.07;;;2.05;;
10045;SDS011;5063;50.878;4.742;2022-08-21T12:04:18;6.85;;;2.28;;
10045;SDS011;5063;50.878;4.742;2022-08-21T12:06:56;9.65;;;2.63;;
10045;SDS011;5063;50.878;4.742;2022-08-21T12:09:35;8.40;;;1.90;;
10045;SDS011;5063;50.878;4.742;2022-08-21T12:12:10;7.82;;;2.58;;
10045;SDS011;5063;50.878;4.742;2022-08-21T12:17:16;4.10;;;1.55;;
10045;SDS011;5063;50.878;4.742;2022-08-21T12:19:44;6.60;;;2.42;;
10045;SDS011;5063;50.878;4.742;2022-08-21T12:22:11;10.02;;;2.30;;
10045;SDS011;5063;50.878;4.742;2022-08-21T12:27:18;6.47;;;2.13;;
10045;SDS011;5063;50.878;4.742;2022-08-21T12:30:02;5.80;;;2.00;;
10045;SDS011;5063;50.878;4.742;2022-08-21T12:35:13;5.07;;;1.88;;
10045;SDS011;5063;50.878;4.742;2022-08-21T12:37:50;8.40;;;2.33;;
10045;SDS011;5063;50.878;4.742;2022-08-21T12:40:29;7.50;;;2.42;;
10045;SDS011;5063;50.878;4.742;2022-08-21T12:43:02;5.63;;;2.25;;
10045;SDS011;5063;50.878;4.742;2022-08-21T12:45:33;4.60;;;2.08;;
10045;SDS011;5063;50.878;4.742;2022-08-21T12:48:39;7.53;;;2.10;;
10045;SDS011;5063;50.878;4.742;2022-08-21T12:51:08;5.57;;;1.88;;
10045;SDS011;5063;50.878;4.742;2022-08-21T12:53:47;4.82;;;1.70;;
10045;SDS011;5063;50.878;4.742;2022-08-21T12:56:21;5.13;;;2.40;;
10045;SDS011;5063;50.878;4.742;2022-08-21T12:58:49;6.53;;;2.45;;
10045;SDS011;5063;50.878;4.742;2022-08-21T13:04:15;5.82;;;1.98;;
10045;SDS011;5063;50.878;4.742;2022-08-21T13:06:47;6.00;;;2.45;;
10045;SDS011;5063;50.878;4.742;2022-08-21T13:09:18;5.60;;;2.40;;
10045;SDS011;5063;50.878;4.742;2022-08-21T13:11:48;6.05;;;2.13;;
10045;SDS011;5063;50.878;4.742;2022-08-21T13:14:29;6.45;;;1.95;;
10045;SDS011;5063;50.878;4.742;2022-08-21T13:16:59;5.13;;;2.35;;
10045;SDS011;5063;50.878;4.742;2022-08-21T13:19:28;6.18;;;2.05;;
10045;SDS011;5063;50.878;4.742;2022-08-21T13:21:54;5.60;;;2.10;;
10045;SDS011;5063;50.878;4.742;2022-08-21T13:24:22;8.07;;;1.95;;
10045;SDS011;5063;50.878;4.742;2022-08-21T13:26:54;6.00;;;2.17;;
10045;SDS011;5063;50.878;4.742;2022-08-21T13:29:22;6.22;;;2.20;;
10045;SDS011;5063;50.878;4.742;2022-08-21T13:31:57;6.63;;;2.45;;
10045;SDS011;5063;50.878;4.742;2022-08-21T13:34:25;4.30;;;2.03;;
10045;SDS011;5063;50.878;4.742;2022-08-21T13:36:59;5.13;;;1.95;;
10045;SDS011;5063;50.878;4.742;2022-08-21T13:39:28;4.53;;;2.05;;
10045;SDS011;5063;50.878;4.742;2022-08-21T13:41:55;6.72;;;2.33;;
10045;SDS011;5063;50.878;4.742;2022-08-21T13:44:24;4.85;;;2.38;;
10045;SDS011;5063;50.878;4.742;2022-08-21T13:47:09;4.30;;;1.73;;
10045;SDS011;5063;50.878;4.742;2022-08-21T13:49:47;6.90;;;2.03;;
10045;SDS011;5063;50.878;4.742;2022-08-21T13:52:23;4.60;;;2.05;;
10045;SDS011;5063;50.878;4.742;2022-08-21T13:54:59;5.90;;;2.47;;
10045;SDS011;5063;50.878;4.742;2022-08-21T13:57:33;4.30;;;1.80;;
10045;SDS011;5063;50.878;4.742;2022-08-21T14:00:17;6.10;;;2.30;;
10045;SDS011;5063;50.878;4.742;2022-08-21T14:02:50;5.38;;;2.25;;
10045;SDS011;5063;50.878;4.742;2022-08-21T14:05:37;4.50;;;1.83;;
10045;SDS011;5063;50.878;4.742;2022-08-21T14:08:12;4.95;;;2.10;;
10045;SDS011;5063;50.878;4.742;2022-08-21T14:10:51;5.70;;;1.90;;
10045;SDS011;5063;50.878;4.742;2022-08-21T14:13:34;5.05;;;1.83;;
10045;SDS011;5063;50.878;4.742;2022-08-21T14:16:02;6.78;;;2.05;;
10045;SDS011;5063;50.878;4.742;2022-08-21T14:18:42;4.72;;;2.10;;
10045;SDS011;5063;50.878;4.742;2022-08-21T14:21:12;8.15;;;1.88;;
10045;SDS011;5063;50.878;4.742;2022-08-21T14:23:38;5.80;;;2.10;;
10045;SDS011;5063;50.878;4.742;2022-08-21T14:26:05;6.47;;;1.85;;
10045;SDS011;5063;50.878;4.742;2022-08-21T14:28:39;4.88;;;2.50;;
10045;SDS011;5063;50.878;4.742;2022-08-21T14:31:19;6.03;;;1.55;;
10045;SDS011;5063;50.878;4.742;2022-08-21T14:33:47;5.32;;;2.13;;
10045;SDS011;5063;50.878;4.742;2022-08-21T14:36:13;5.18;;;1.70;;
10045;SDS011;5063;50.878;4.742;2022-08-21T14:38:40;4.75;;;1.55;;
10045;SDS011;5063;50.878;4.742;2022-08-21T14:41:16;6.55;;;2.22;;
10045;SDS011;5063;50.878;4.742;2022-08-21T14:43:46;3.25;;;1.48;;
10045;SDS011;5063;50.878;4.742;2022-08-21T14:46:13;5.53;;;2.10;;
10045;SDS011;5063;50.878;4.742;2022-08-21T14:48:44;13.10;;;2.78;;
10045;SDS011;5063;50.878;4.742;2022-08-21T14:51:11;6.50;;;1.70;;
10045;SDS011;5063;50.878;4.742;2022-08-21T14:53:37;7.43;;;2.40;;
10045;SDS011;5063;50.878;4.742;2022-08-21T14:56:03;8.13;;;2.30;;
10045;SDS011;5063;50.878;4.742;2022-08-21T14:58:36;4.82;;;1.80;;
10045;SDS011;5063;50.878;4.742;2022-08-21T15:01:04;5.85;;;2.10;;
10045;SDS011;5063;50.878;4.742;2022-08-21T15:03:32;6.03;;;2.35;;
10045;SDS011;5063;50.878;4.742;2022-08-21T15:05:59;5.95;;;1.98;;
10045;SDS011;5063;50.878;4.742;2022-08-21T15:08:26;3.63;;;2.25;;
10045;SDS011;5063;50.878;4.742;2022-08-21T15:10:52;4.15;;;1.90;;
10045;SDS011;5063;50.878;4.742;2022-08-21T15:13:18;5.57;;;2.15;;
10045;SDS011;5063;50.878;4.742;2022-08-21T15:15:45;5.18;;;2.10;;
10045;SDS011;5063;50.878;4.742;2022-08-21T15:18:13;4.65;;;2.35;;
10045;SDS011;5063;50.878;4.742;2022-08-21T15:20:39;5.95;;;1.98;;
10045;SDS011;5063;50.878;4.742;2022-08-21T15:23:05;5.20;;;2.38;;
10045;SDS011;5063;50.878;4.742;2022-08-21T15:25:33;7.45;;;2.42;;
10045;SDS011;5063;50.878;4.742;2022-08-21T15:27:59;7.97;;;2.30;;
10045;SDS011;5063;50.878;4.742;2022-08-21T15:30:26;4.60;;;2.00;;
10045;SDS011;5063;50.878;4.742;2022-08-21T15:32:54;3.85;;;2.13;;
10045;SDS011;5063;50.878;4.742;2022-08-21T15:35:19;5.55;;;2.15;;
10045;SDS011;5063;50.878;4.742;2022-08-21T15:37:45;10.73;;;2.55;;
10045;SDS011;5063;50.878;4.742;2022-08-21T15:40:11;6.20;;;1.98;;
10045;SDS011;5063;50.878;4.742;2022-08-21T15:42:38;4.53;;;1.80;;
10045;SDS011;5063;50.878;4.742;2022-08-21T15:45:06;2.92;;;1.80;;
10045;SDS011;5063;50.878;4.742;2022-08-21T15:47:34;5.28;;;2.28;;
10045;SDS011;5063;50.878;4.742;2022-08-21T15:50:04;7.80;;;2.38;;
10045;SDS011;5063;50.878;4.742;2022-08-21T15:52:33;7.15;;;2.33;;
10045;SDS011;5063;50.878;4.742;2022-08-21T15:54:59;8.48;;;2.40;;
10045;SDS011;5063;50.878;4.742;2022-08-21T15:57:25;5.32;;;2.03;;
10045;SDS011;5063;50.878;4.742;2022-08-21T15:59:53;7.88;;;2.42;;
10045;SDS011;5063;50.878;4.742;2022-08-21T16:02:23;6.70;;;2.35;;
10045;SDS011;5063;50.878;4.742;2022-08-21T16:04:52;5.47;;;2.00;;
10045;SDS011;5063;50.878;4.742;2022-08-21T16:07:18;4.38;;;1.88;;
10045;SDS011;5063;50.878;4.742;2022-08-21T16:09:44;5.63;;;2.00;;
10045;SDS011;5063;50.878;4.742;2022-08-21T16:12:11;7.07;;;1.95;;
10045;SDS011;5063;50.878;4.742;2022-08-21T16:14:42;6.82;;;2.90;;
10045;SDS011;5063;50.878;4.742;2022-08-21T16:17:08;7.60;;;2.55;;